createdAt,value
2023-07-07T00:00:23.107Z,14.10
2023-07-07T00:03:10.669Z,14.10
2023-07-07T00:05:38.038Z,14.10
2023-07-07T00:08:05.376Z,14.00
2023-07-07T00:10:33.353Z,14.00
2023-07-07T00:13:02.821Z,13.90
2023-07-07T00:15:30.639Z,13.90
2023-07-07T00:17:58.703Z,13.80
2023-07-07T00:20:26.077Z,13.80
2023-07-07T00:22:56.869Z,13.70
2023-07-07T00:25:24.576Z,13.70
2023-07-07T00:27:51.713Z,13.60
2023-07-07T00:30:19.397Z,13.50
2023-07-07T00:32:46.680Z,13.50
2023-07-07T00:35:14.560Z,13.40
2023-07-07T00:37:44.772Z,13.30
2023-07-07T00:40:13.428Z,13.30
2023-07-07T00:42:40.553Z,13.20
2023-07-07T00:45:13.613Z,13.20
2023-07-07T00:48:06.479Z,13.10
2023-07-07T00:50:41.875Z,13.10
2023-07-07T00:53:09.187Z,13.00
2023-07-07T00:55:47.710Z,13.00
2023-07-07T00:58:17.853Z,13.00
2023-07-07T01:00:50.473Z,13.00
2023-07-07T01:03:26.075Z,12.90
2023-07-07T01:05:57.681Z,12.90
2023-07-07T01:08:25.411Z,13.00
2023-07-07T01:10:53.078Z,12.90
2023-07-07T01:13:20.304Z,12.90
2023-07-07T01:16:04.894Z,12.90
2023-07-07T01:19:17.278Z,12.90
2023-07-07T01:22:09.150Z,12.90
2023-07-07T01:25:09.344Z,12.80
2023-07-07T01:27:55.195Z,12.80
2023-07-07T01:30:38.163Z,12.80
2023-07-07T01:33:10.418Z,12.90
2023-07-07T01:35:37.785Z,12.90
2023-07-07T01:38:07.054Z,12.80
2023-07-07T01:40:47.000Z,12.90
2023-07-07T01:43:22.798Z,12.90
2023-07-07T01:46:06.426Z,12.90
2023-07-07T01:48:47.384Z,12.80
2023-07-07T01:51:18.192Z,12.80
2023-07-07T01:53:48.687Z,12.90
2023-07-07T01:56:21.636Z,12.90
2023-07-07T01:58:49.644Z,12.80
2023-07-07T02:01:16.977Z,12.80
2023-07-07T02:03:45.128Z,12.80
2023-07-07T02:06:12.299Z,12.80
2023-07-07T02:08:39.740Z,12.80
2023-07-07T02:11:07.058Z,12.70
2023-07-07T02:13:37.844Z,12.70
2023-07-07T02:16:06.011Z,12.70
2023-07-07T02:18:34.591Z,12.60
2023-07-07T02:21:01.789Z,12.60
2023-07-07T02:23:29.252Z,12.50
2023-07-07T02:25:56.316Z,12.50
2023-07-07T02:28:23.972Z,12.40
2023-07-07T02:30:51.823Z,12.40
2023-07-07T02:33:19.196Z,12.30
2023-07-07T02:35:50.121Z,12.10
2023-07-07T02:38:17.667Z,12.20
2023-07-07T02:40:44.806Z,12.10
2023-07-07T02:43:12.184Z,12.00
2023-07-07T02:45:39.401Z,12.00
2023-07-07T02:48:07.081Z,11.90
2023-07-07T02:50:34.192Z,11.90
2023-07-07T02:53:01.936Z,11.90
2023-07-07T02:55:28.993Z,11.90
2023-07-07T02:57:56.360Z,11.90
2023-07-07T03:00:25.135Z,11.90
2023-07-07T03:02:52.486Z,11.90
2023-07-07T03:05:20.637Z,11.90
2023-07-07T03:07:48.172Z,12.00
2023-07-07T03:10:15.325Z,12.00
2023-07-07T03:12:42.756Z,12.10
2023-07-07T03:15:10.110Z,12.30
2023-07-07T03:17:37.579Z,12.30
2023-07-07T03:20:06.436Z,12.30
2023-07-07T03:22:34.077Z,12.40
2023-07-07T03:25:01.580Z,12.40
2023-07-07T03:27:29.191Z,12.50
2023-07-07T03:29:56.369Z,12.50
2023-07-07T03:32:23.748Z,12.50
2023-07-07T03:34:51.175Z,12.60
2023-07-07T03:37:18.918Z,12.80
2023-07-07T03:39:45.969Z,12.80
2023-07-07T03:42:13.280Z,12.90
2023-07-07T03:44:40.530Z,13.10
2023-07-07T03:47:08.167Z,13.20
2023-07-07T03:49:35.260Z,13.40
2023-07-07T03:52:02.990Z,13.50
2023-07-07T03:54:30.161Z,13.60
2023-07-07T03:56:59.276Z,13.80
2023-07-07T03:59:27.935Z,13.80
2023-07-07T04:01:55.362Z,13.90
2023-07-07T04:04:22.602Z,13.90
2023-07-07T04:06:50.000Z,13.90
2023-07-07T04:09:17.012Z,14.00
2023-07-07T04:11:44.350Z,14.00
2023-07-07T04:14:11.446Z,14.00
2023-07-07T04:16:38.871Z,14.10
2023-07-07T04:19:06.057Z,14.20
2023-07-07T04:21:35.507Z,14.40
2023-07-07T04:24:03.689Z,14.40
2023-07-07T04:26:32.932Z,14.60
2023-07-07T04:29:01.389Z,14.70
2023-07-07T04:31:30.292Z,15.00
2023-07-07T04:33:57.997Z,15.00
2023-07-07T04:36:25.620Z,15.10
2023-07-07T04:38:52.811Z,15.30
2023-07-07T04:41:26.492Z,15.40
2023-07-07T04:43:54.609Z,15.50
2023-07-07T04:46:31.084Z,15.70
2023-07-07T04:48:58.669Z,15.90
2023-07-07T04:51:26.383Z,16.20
2023-07-07T04:53:53.446Z,16.20
2023-07-07T04:56:23.610Z,16.40
2023-07-07T04:58:53.096Z,16.70
2023-07-07T05:01:23.786Z,17.00
2023-07-07T05:03:57.097Z,17.30
2023-07-07T05:06:26.763Z,17.50
2023-07-07T05:08:53.953Z,17.80
2023-07-07T05:11:24.775Z,18.10
2023-07-07T05:13:52.982Z,18.40
2023-07-07T05:16:32.521Z,18.60
2023-07-07T05:18:59.851Z,18.80
2023-07-07T05:21:27.219Z,19.40
2023-07-07T05:23:55.131Z,19.30
2023-07-07T05:26:28.425Z,19.60
2023-07-07T05:29:00.170Z,19.80
2023-07-07T05:31:27.768Z,20.20
2023-07-07T05:33:55.126Z,20.20
2023-07-07T05:36:22.715Z,20.50
2023-07-07T05:38:51.376Z,20.70
2023-07-07T05:41:19.042Z,20.90
2023-07-07T05:43:46.122Z,21.10
2023-07-07T05:46:16.241Z,21.20
2023-07-07T05:48:44.404Z,21.50
2023-07-07T05:51:16.759Z,21.50
2023-07-07T05:53:44.823Z,21.70
2023-07-07T05:56:21.386Z,21.90
2023-07-07T05:58:48.600Z,22.00
2023-07-07T06:01:16.158Z,22.20
2023-07-07T06:03:44.765Z,22.30
2023-07-07T06:06:13.213Z,22.40
2023-07-07T06:08:41.425Z,22.60
2023-07-07T06:11:09.411Z,22.70
2023-07-07T06:13:36.560Z,22.80
2023-07-07T06:16:06.653Z,22.90
2023-07-07T06:18:34.075Z,23.10
2023-07-07T06:21:02.553Z,23.20
2023-07-07T06:23:31.589Z,23.30
2023-07-07T06:25:59.110Z,23.50
2023-07-07T06:28:26.589Z,23.70
2023-07-07T06:30:54.839Z,23.70
2023-07-07T06:33:23.328Z,23.90
2023-07-07T06:35:51.965Z,24.30
2023-07-07T06:38:19.354Z,24.60
2023-07-07T06:40:48.779Z,24.70
2023-07-07T06:43:20.159Z,25.10
2023-07-07T06:45:54.846Z,25.60
2023-07-07T06:48:21.973Z,25.90
2023-07-07T06:50:49.802Z,26.20
2023-07-07T06:53:16.989Z,26.60
2023-07-07T06:55:44.742Z,27.00
2023-07-07T06:58:15.851Z,27.70
2023-07-07T07:00:44.886Z,28.30
2023-07-07T07:03:12.387Z,28.60
2023-07-07T07:05:40.869Z,28.90
2023-07-07T07:08:08.154Z,29.50
2023-07-07T07:10:36.033Z,30.00
2023-07-07T07:13:03.354Z,30.40
2023-07-07T07:15:31.456Z,30.50
2023-07-07T07:17:58.758Z,31.10
2023-07-07T07:20:26.186Z,31.30
2023-07-07T07:22:53.260Z,31.60
2023-07-07T07:25:20.651Z,31.80
2023-07-07T07:27:47.730Z,32.20
2023-07-07T07:30:16.866Z,32.60
2023-07-07T07:32:44.243Z,33.00
2023-07-07T07:35:13.120Z,33.10
2023-07-07T07:37:40.895Z,33.70
2023-07-07T07:40:09.242Z,34.10
2023-07-07T07:42:36.442Z,34.50
2023-07-07T07:45:04.158Z,35.00
2023-07-07T07:47:31.477Z,35.00
2023-07-07T07:49:59.321Z,34.90
2023-07-07T07:52:26.482Z,34.90
2023-07-07T07:54:54.082Z,35.30
2023-07-07T07:57:21.235Z,35.60
2023-07-07T07:59:48.820Z,36.20
2023-07-07T08:02:15.893Z,36.60
2023-07-07T08:04:43.510Z,36.70
2023-07-07T08:07:10.984Z,37.10
2023-07-07T08:09:38.390Z,37.50
2023-07-07T08:12:05.886Z,37.50
2023-07-07T08:14:33.986Z,37.80
2023-07-07T08:17:10.049Z,37.90
2023-07-07T08:19:39.295Z,38.10
2023-07-07T08:22:18.668Z,38.40
2023-07-07T08:24:49.749Z,38.50
2023-07-07T08:29:49.402Z,39.20
2023-07-07T08:32:20.468Z,39.80
2023-07-07T08:34:54.718Z,40.20
2023-07-07T08:37:23.999Z,40.10
2023-07-07T08:39:51.695Z,40.30
2023-07-07T08:42:32.307Z,40.90
2023-07-07T08:45:04.282Z,41.60
2023-07-07T08:48:06.726Z,42.10
2023-07-07T08:50:50.262Z,41.70
2023-07-07T08:53:31.882Z,42.10
2023-07-07T08:56:22.665Z,42.40
2023-07-07T08:58:49.785Z,42.90
2023-07-07T09:01:37.582Z,43.20
2023-07-07T09:04:27.521Z,43.10
2023-07-07T09:07:24.966Z,42.30
2023-07-07T09:10:15.785Z,42.00
2023-07-07T09:13:01.634Z,42.10
2023-07-07T09:15:33.010Z,41.90
2023-07-07T09:18:06.606Z,42.40
2023-07-07T09:20:35.948Z,42.70
2023-07-07T09:23:14.906Z,42.10
2023-07-07T09:25:50.717Z,42.30
2023-07-07T09:28:19.273Z,42.40
2023-07-07T09:30:59.283Z,42.70
2023-07-07T09:33:28.000Z,43.00
2023-07-07T09:36:07.036Z,42.90
2023-07-07T09:38:50.437Z,42.20
2023-07-07T09:41:36.339Z,42.30
2023-07-07T09:44:19.025Z,43.00
2023-07-07T09:47:11.774Z,43.50
2023-07-07T09:49:52.791Z,43.60
2023-07-07T09:52:50.021Z,43.90
2023-07-07T09:55:33.458Z,44.30
2023-07-07T09:58:17.657Z,44.20
2023-07-07T10:00:59.608Z,44.50
2023-07-07T10:03:48.223Z,44.80
2023-07-07T10:06:35.162Z,45.50
2023-07-07T10:09:04.234Z,44.50
2023-07-07T10:14:08.881Z,41.40
2023-07-07T10:17:00.900Z,42.40
2023-07-07T10:19:28.430Z,43.30
2023-07-07T10:21:56.719Z,44.00
2023-07-07T10:24:24.587Z,44.50
2023-07-07T10:26:52.304Z,44.40
2023-07-07T10:29:23.611Z,44.30
2023-07-07T10:31:52.181Z,43.80
2023-07-07T10:34:36.648Z,44.10
2023-07-07T10:37:15.746Z,45.00
2023-07-07T10:39:42.949Z,45.30
2023-07-07T10:42:11.083Z,45.80
2023-07-07T10:44:38.162Z,45.50
2023-07-07T10:47:21.707Z,44.60
2023-07-07T10:49:50.866Z,44.30
2023-07-07T10:55:34.509Z,43.70
2023-07-07T10:58:17.037Z,44.90
2023-07-07T11:01:14.010Z,45.00
2023-07-07T11:04:04.121Z,45.50
2023-07-07T11:07:00.960Z,44.80
2023-07-07T11:09:47.094Z,42.80
2023-07-07T11:12:26.362Z,42.50
2023-07-07T11:15:11.786Z,41.90
2023-07-07T11:17:38.899Z,42.70
2023-07-07T11:20:30.868Z,43.90
2023-07-07T11:23:25.682Z,44.30
2023-07-07T11:26:14.047Z,44.70
2023-07-07T11:28:59.136Z,44.50
2023-07-07T11:34:46.835Z,45.30
2023-07-07T11:37:16.145Z,45.70
2023-07-07T11:40:01.781Z,44.70
2023-07-07T11:42:50.073Z,44.50
2023-07-07T11:45:20.257Z,43.90
2023-07-07T11:48:11.759Z,44.30
2023-07-07T11:50:42.345Z,44.90
2023-07-07T11:53:15.722Z,45.70
2023-07-07T11:56:21.074Z,46.50
2023-07-07T11:59:06.226Z,46.90
2023-07-07T12:01:38.597Z,47.10
2023-07-07T12:04:34.375Z,46.40
2023-07-07T12:07:06.883Z,46.60
2023-07-07T12:09:45.785Z,47.30
2023-07-07T12:12:38.218Z,46.80
2023-07-07T12:15:31.725Z,46.00
2023-07-07T12:17:58.805Z,46.00
2023-07-07T12:20:31.252Z,46.50
2023-07-07T12:23:02.798Z,46.50
2023-07-07T12:25:31.283Z,45.90
2023-07-07T12:27:59.758Z,45.90
2023-07-07T12:30:33.917Z,45.20
2023-07-07T12:33:01.297Z,44.50
2023-07-07T12:35:41.949Z,44.10
2023-07-07T12:38:28.937Z,44.00
2023-07-07T12:40:59.641Z,43.50
2023-07-07T12:43:44.604Z,43.70
2023-07-07T12:46:20.238Z,43.80
2023-07-07T12:48:47.804Z,44.60
2023-07-07T12:51:18.714Z,44.80
2023-07-07T12:53:48.689Z,44.40
2023-07-07T12:56:22.469Z,44.80
2023-07-07T12:58:53.230Z,44.30
2023-07-07T13:01:29.342Z,43.80
2023-07-07T13:04:08.689Z,43.20
2023-07-07T13:06:41.784Z,42.60
2023-07-07T13:09:17.963Z,43.20
2023-07-07T13:11:57.616Z,43.30
2023-07-07T13:14:28.323Z,42.80
2023-07-07T13:16:58.686Z,42.10
2023-07-07T13:19:26.763Z,42.00
2023-07-07T13:21:56.683Z,42.30
2023-07-07T13:24:30.876Z,42.30
2023-07-07T13:27:00.436Z,42.20
2023-07-07T13:29:28.800Z,41.80
2023-07-07T13:31:56.187Z,40.90
2023-07-07T13:34:25.823Z,38.60
2023-07-07T13:36:53.768Z,36.70
2023-07-07T13:39:22.560Z,37.10
2023-07-07T13:41:50.022Z,37.10
2023-07-07T13:44:19.723Z,38.00
2023-07-07T13:46:51.880Z,39.10
2023-07-07T13:49:20.756Z,40.20
2023-07-07T13:51:53.877Z,40.50
2023-07-07T13:54:23.332Z,39.40
2023-07-07T13:57:23.468Z,39.00
2023-07-07T13:59:51.716Z,39.50
2023-07-07T14:02:21.054Z,40.50
2023-07-07T14:05:15.452Z,41.60
2023-07-07T14:07:43.122Z,41.90
2023-07-07T14:10:40.241Z,42.50
2023-07-07T14:13:15.864Z,42.40
2023-07-07T14:15:49.804Z,42.80
2023-07-07T14:18:19.229Z,42.10
2023-07-07T14:20:49.478Z,42.50
2023-07-07T14:23:18.765Z,42.50
2023-07-07T14:25:48.945Z,42.30
2023-07-07T14:28:22.959Z,42.20
2023-07-07T14:30:57.856Z,42.30
2023-07-07T14:33:55.412Z,43.10
2023-07-07T14:36:39.141Z,43.90
2023-07-07T14:39:26.962Z,43.50
2023-07-07T14:41:56.725Z,43.00
2023-07-07T14:44:46.144Z,42.30
2023-07-07T14:47:28.664Z,42.00
2023-07-07T14:50:01.521Z,42.30
2023-07-07T14:52:29.137Z,42.90
2023-07-07T14:55:00.636Z,42.60
2023-07-07T14:57:28.671Z,42.50
2023-07-07T14:59:56.158Z,41.70
2023-07-07T15:02:29.118Z,40.40
2023-07-07T15:05:22.758Z,39.30
2023-07-07T15:07:50.846Z,36.90
2023-07-07T15:10:19.194Z,35.10
2023-07-07T15:12:48.170Z,33.40
2023-07-07T15:15:17.032Z,32.20
2023-07-07T15:17:45.129Z,31.00
2023-07-07T15:20:18.158Z,30.10
2023-07-07T15:22:47.932Z,29.30
2023-07-07T15:25:15.739Z,28.90
2023-07-07T15:27:43.142Z,28.50
2023-07-07T15:30:16.506Z,28.10
2023-07-07T15:32:46.578Z,28.00
2023-07-07T15:35:15.577Z,27.90
2023-07-07T15:37:44.456Z,27.70
2023-07-07T15:40:21.298Z,27.60
2023-07-07T15:42:53.200Z,27.40
2023-07-07T15:45:20.848Z,27.30
2023-07-07T15:47:48.102Z,27.10
2023-07-07T15:50:21.237Z,27.00
2023-07-07T15:52:48.403Z,26.90
2023-07-07T15:55:16.442Z,26.80
2023-07-07T15:57:43.707Z,26.70
2023-07-07T16:00:24.892Z,26.60
2023-07-07T16:02:52.474Z,26.60
2023-07-07T16:05:20.009Z,26.50
2023-07-07T16:07:47.210Z,26.60
2023-07-07T16:10:15.621Z,26.70
2023-07-07T16:12:42.712Z,26.70
2023-07-07T16:15:10.816Z,26.60
2023-07-07T16:17:38.372Z,26.50
2023-07-07T16:20:19.716Z,26.30
2023-07-07T16:22:51.672Z,26.30
2023-07-07T16:25:19.644Z,26.20
2023-07-07T16:27:46.931Z,26.10
2023-07-07T16:30:31.083Z,26.00
2023-07-07T16:32:58.524Z,26.00
2023-07-07T16:35:27.379Z,25.90
2023-07-07T16:37:54.597Z,25.80
2023-07-07T16:40:29.665Z,25.90
2023-07-07T16:42:56.757Z,25.90
2023-07-07T16:45:24.399Z,25.90
2023-07-07T16:47:51.676Z,25.80
2023-07-07T16:50:26.583Z,25.80
2023-07-07T16:52:58.482Z,25.70
2023-07-07T16:55:27.211Z,25.70
2023-07-07T16:57:54.270Z,25.70
2023-07-07T17:00:27.473Z,25.70
2023-07-07T17:02:55.512Z,25.70
2023-07-07T17:05:25.436Z,25.70
2023-07-07T17:07:52.522Z,25.70
2023-07-07T17:10:22.985Z,25.70
2023-07-07T17:12:50.015Z,25.70
2023-07-07T17:15:17.350Z,25.60
2023-07-07T17:17:44.538Z,25.50
2023-07-07T17:20:35.505Z,25.40
2023-07-07T17:23:02.686Z,25.40
2023-07-07T17:25:30.336Z,25.40
2023-07-07T17:27:57.469Z,25.40
2023-07-07T17:30:27.640Z,25.40
2023-07-07T17:32:56.695Z,25.40
2023-07-07T17:35:26.696Z,25.40
2023-07-07T17:37:54.172Z,25.30
2023-07-07T17:40:41.328Z,25.30
2023-07-07T17:43:08.394Z,25.20
2023-07-07T17:45:36.051Z,25.20
2023-07-07T17:48:03.254Z,25.10
2023-07-07T17:50:42.731Z,25.00
2023-07-07T17:53:10.026Z,24.90
2023-07-07T17:55:37.410Z,24.80
2023-07-07T17:58:11.096Z,24.70
2023-07-07T18:00:42.704Z,24.60
2023-07-07T18:03:09.971Z,24.50
2023-07-07T18:05:38.744Z,24.40
2023-07-07T18:08:11.387Z,24.30
2023-07-07T18:10:39.789Z,24.20
2023-07-07T18:13:08.173Z,24.10
2023-07-07T18:15:36.145Z,24.10
2023-07-07T18:18:22.831Z,24.00
2023-07-07T18:21:10.829Z,23.90
2023-07-07T18:23:38.485Z,23.70
2023-07-07T18:26:12.399Z,23.70
2023-07-07T18:28:39.448Z,23.50
2023-07-07T18:31:11.952Z,23.40
2023-07-07T18:33:39.041Z,23.30
2023-07-07T18:36:47.313Z,23.20
2023-07-07T18:38:58.607Z,23.00
2023-07-07T18:41:27.062Z,22.70
2023-07-07T18:43:54.688Z,22.60
2023-07-07T18:46:27.012Z,22.50
2023-07-07T18:48:54.189Z,22.40
2023-07-07T18:51:22.999Z,22.20
2023-07-07T18:53:52.138Z,22.10
2023-07-07T18:56:33.075Z,21.90
2023-07-07T18:59:00.318Z,21.70
2023-07-07T19:01:30.060Z,21.30
2023-07-07T19:03:57.242Z,21.30
2023-07-07T19:06:33.376Z,21.10
2023-07-07T19:09:01.556Z,21.00
2023-07-07T19:11:29.389Z,20.70
2023-07-07T19:13:56.444Z,20.60
2023-07-07T19:16:28.198Z,20.50
2023-07-07T19:18:58.111Z,20.40
2023-07-07T19:21:28.626Z,20.10
2023-07-07T19:23:59.929Z,20.00
2023-07-07T19:26:28.912Z,19.90
2023-07-07T19:28:58.099Z,19.70
2023-07-07T19:33:53.349Z,19.50
2023-07-07T19:36:28.612Z,19.40
2023-07-07T19:38:56.958Z,19.40
2023-07-07T19:41:33.913Z,19.30
2023-07-07T19:44:00.997Z,19.20
2023-07-07T19:46:33.633Z,19.10
2023-07-07T19:49:02.409Z,19.10
2023-07-07T19:51:34.012Z,18.80
2023-07-07T19:54:01.917Z,18.90
2023-07-07T19:56:29.805Z,18.70
2023-07-07T19:58:58.803Z,18.70
2023-07-07T20:01:29.189Z,18.40
2023-07-07T20:03:57.239Z,18.40
2023-07-07T20:06:31.795Z,18.30
2023-07-07T20:08:58.899Z,18.30
2023-07-07T20:11:28.696Z,18.30
2023-07-07T20:13:57.511Z,18.20
2023-07-07T20:16:35.509Z,18.30
2023-07-07T20:19:05.451Z,18.20
2023-07-07T20:21:32.782Z,18.10
2023-07-07T20:24:00.103Z,18.10
2023-07-07T20:26:27.867Z,18.00
2023-07-07T20:28:57.207Z,18.00
2023-07-07T20:31:25.770Z,17.90
2023-07-07T20:33:54.457Z,17.80
2023-07-07T20:36:25.286Z,17.70
2023-07-07T20:38:52.523Z,17.60
2023-07-07T20:41:20.404Z,17.60
2023-07-07T20:43:47.754Z,17.60
2023-07-07T20:46:31.417Z,17.60
2023-07-07T20:49:02.936Z,17.40
2023-07-07T20:51:31.889Z,17.10
2023-07-07T20:53:59.165Z,17.00
2023-07-07T20:56:28.705Z,16.90
2023-07-07T20:58:55.733Z,17.00
2023-07-07T21:01:23.202Z,16.90
2023-07-07T21:03:51.196Z,17.00
2023-07-07T21:06:21.391Z,17.00
2023-07-07T21:08:48.771Z,17.00
2023-07-07T21:11:18.827Z,17.00
2023-07-07T21:13:46.090Z,17.00
2023-07-07T21:16:23.290Z,16.90
2023-07-07T21:18:51.361Z,16.80
2023-07-07T21:21:25.349Z,16.70
2023-07-07T21:23:52.484Z,16.60
2023-07-07T21:26:34.469Z,16.50
2023-07-07T21:29:01.620Z,16.50
2023-07-07T21:31:31.472Z,16.40
2023-07-07T21:33:59.012Z,16.40
2023-07-07T21:36:37.267Z,16.30
2023-07-07T21:39:27.137Z,16.20
2023-07-07T21:42:11.289Z,16.10
2023-07-07T21:44:41.543Z,16.00
2023-07-07T21:47:16.923Z,15.90
2023-07-07T21:49:45.424Z,15.80
2023-07-07T21:52:17.800Z,15.70
2023-07-07T21:54:45.250Z,15.70
2023-07-07T21:57:46.673Z,15.60
2023-07-07T22:00:15.460Z,15.60
2023-07-07T22:02:44.473Z,15.50
2023-07-07T22:05:13.353Z,15.50
2023-07-07T22:07:41.710Z,15.50
2023-07-07T22:10:17.606Z,15.40
2023-07-07T22:12:45.168Z,15.30
2023-07-07T22:15:12.995Z,15.30
2023-07-07T22:17:40.994Z,15.30
2023-07-07T22:20:29.730Z,15.30
2023-07-07T22:22:58.509Z,15.20
2023-07-07T22:25:27.366Z,15.10
2023-07-07T22:27:55.212Z,15.10
2023-07-07T22:30:31.334Z,15.00
2023-07-07T22:32:58.884Z,15.00
2023-07-07T22:35:25.963Z,15.00
2023-07-07T22:37:53.402Z,15.00
2023-07-07T22:40:24.611Z,15.00
2023-07-07T22:42:52.384Z,14.90
2023-07-07T22:45:19.632Z,14.80
2023-07-07T22:47:47.308Z,14.80
2023-07-07T22:50:25.194Z,14.70
2023-07-07T22:52:53.093Z,14.70
2023-07-07T22:55:22.391Z,14.70
2023-07-07T22:57:50.008Z,14.70
2023-07-07T23:00:19.640Z,14.70
2023-07-07T23:02:47.773Z,14.60
2023-07-07T23:05:15.736Z,14.60
2023-07-07T23:07:47.550Z,14.60
2023-07-07T23:10:20.803Z,14.60
2023-07-07T23:12:50.685Z,14.60
2023-07-07T23:15:19.312Z,14.60
2023-07-07T23:17:47.615Z,14.60
2023-07-07T23:20:24.520Z,14.60
2023-07-07T23:22:54.013Z,14.60
2023-07-07T23:25:23.491Z,14.60
2023-07-07T23:27:54.471Z,14.50
2023-07-07T23:30:38.495Z,14.50
2023-07-07T23:33:17.488Z,14.50
2023-07-07T23:35:55.309Z,14.50
2023-07-07T23:38:22.745Z,14.50
2023-07-07T23:40:49.803Z,14.40
2023-07-07T23:43:17.382Z,14.40
2023-07-07T23:45:46.614Z,14.30
2023-07-07T23:48:17.066Z,14.30
2023-07-07T23:50:47.367Z,14.30
2023-07-07T23:53:17.180Z,14.20
2023-07-07T23:55:44.806Z,14.20
2023-07-07T23:58:19.836Z,14.20
